sensor_id;sensor_type;location;lat;lon;timestamp;temperature;humidity
68257;DHT22;55069;51.568;4.656;2023-12-22T00:00:17;9.42;77.78
68257;DHT22;55069;51.568;4.656;2023-12-22T00:02:43;9.34;78.11
68257;DHT22;55069;51.568;4.656;2023-12-22T00:05:08;9.29;77.83
68257;DHT22;55069;51.568;4.656;2023-12-22T00:07:34;9.28;77.29
68257;DHT22;55069;51.568;4.656;2023-12-22T00:09:59;9.28;76.58
68257;DHT22;55069;51.568;4.656;2023-12-22T00:12:25;9.24;76.75
68257;DHT22;55069;51.568;4.656;2023-12-22T00:14:50;9.22;76.90
68257;DHT22;55069;51.568;4.656;2023-12-22T00:17:16;9.15;77.31
68257;DHT22;55069;51.568;4.656;2023-12-22T00:19:41;9.36;76.30
68257;DHT22;55069;51.568;4.656;2023-12-22T00:22:06;9.29;77.78
68257;DHT22;55069;51.568;4.656;2023-12-22T00:24:32;8.79;81.05
68257;DHT22;55069;51.568;4.656;2023-12-22T00:26:57;8.56;82.95
68257;DHT22;55069;51.568;4.656;2023-12-22T00:29:23;8.39;83.37
68257;DHT22;55069;51.568;4.656;2023-12-22T00:31:48;8.26;84.75
68257;DHT22;55069;51.568;4.656;2023-12-22T00:34:14;8.31;83.88
68257;DHT22;55069;51.568;4.656;2023-12-22T00:36:39;8.49;82.19
68257;DHT22;55069;51.568;4.656;2023-12-22T00:39:05;8.56;80.53
68257;DHT22;55069;51.568;4.656;2023-12-22T00:41:30;8.63;79.74
68257;DHT22;55069;51.568;4.656;2023-12-22T00:43:56;8.74;79.05
68257;DHT22;55069;51.568;4.656;2023-12-22T00:46:21;8.84;78.46
68257;DHT22;55069;51.568;4.656;2023-12-22T00:48:46;8.76;79.31
68257;DHT22;55069;51.568;4.656;2023-12-22T00:51:12;8.84;78.23
68257;DHT22;55069;51.568;4.656;2023-12-22T00:53:37;8.92;77.57
68257;DHT22;55069;51.568;4.656;2023-12-22T00:56:03;8.92;77.31
68257;DHT22;55069;51.568;4.656;2023-12-22T00:58:30;8.92;77.89
68257;DHT22;55069;51.568;4.656;2023-12-22T01:00:55;8.90;77.97
68257;DHT22;55069;51.568;4.656;2023-12-22T01:03:21;8.88;78.73
68257;DHT22;55069;51.568;4.656;2023-12-22T01:05:46;8.80;79.04
68257;DHT22;55069;51.568;4.656;2023-12-22T01:08:12;8.85;79.31
68257;DHT22;55069;51.568;4.656;2023-12-22T01:10:37;8.83;80.05
68257;DHT22;55069;51.568;4.656;2023-12-22T01:13:03;8.91;80.54
68257;DHT22;55069;51.568;4.656;2023-12-22T01:15:28;8.96;80.83
68257;DHT22;55069;51.568;4.656;2023-12-22T01:17:54;8.98;81.11
68257;DHT22;55069;51.568;4.656;2023-12-22T01:20:19;8.94;81.12
68257;DHT22;55069;51.568;4.656;2023-12-22T01:22:45;8.98;81.21
68257;DHT22;55069;51.568;4.656;2023-12-22T01:25:10;8.98;80.39
68257;DHT22;55069;51.568;4.656;2023-12-22T01:27:36;9.04;78.78
68257;DHT22;55069;51.568;4.656;2023-12-22T01:30:01;9.07;78.07
68257;DHT22;55069;51.568;4.656;2023-12-22T01:32:27;9.10;76.40
68257;DHT22;55069;51.568;4.656;2023-12-22T01:34:58;9.03;75.51
68257;DHT22;55069;51.568;4.656;2023-12-22T01:37:25;9.05;74.27
68257;DHT22;55069;51.568;4.656;2023-12-22T01:39:50;9.00;74.30
68257;DHT22;55069;51.568;4.656;2023-12-22T01:42:16;8.92;74.79
68257;DHT22;55069;51.568;4.656;2023-12-22T01:44:41;8.87;75.46
68257;DHT22;55069;51.568;4.656;2023-12-22T01:47:07;8.84;75.61
68257;DHT22;55069;51.568;4.656;2023-12-22T01:49:32;8.81;76.25
68257;DHT22;55069;51.568;4.656;2023-12-22T01:51:58;8.84;76.49
68257;DHT22;55069;51.568;4.656;2023-12-22T01:54:24;8.79;79.01
68257;DHT22;55069;51.568;4.656;2023-12-22T01:56:50;8.22;82.89
68257;DHT22;55069;51.568;4.656;2023-12-22T01:59:16;7.94;84.50
68257;DHT22;55069;51.568;4.656;2023-12-22T02:01:42;7.84;84.74
68257;DHT22;55069;51.568;4.656;2023-12-22T02:04:11;8.01;84.78
68257;DHT22;55069;51.568;4.656;2023-12-22T02:06:37;8.11;84.67
68257;DHT22;55069;51.568;4.656;2023-12-22T02:09:02;7.98;86.03
68257;DHT22;55069;51.568;4.656;2023-12-22T02:11:29;7.99;86.64
68257;DHT22;55069;51.568;4.656;2023-12-22T02:13:55;8.02;87.76
68257;DHT22;55069;51.568;4.656;2023-12-22T02:16:29;8.24;87.09
68257;DHT22;55069;51.568;4.656;2023-12-22T02:18:59;8.45;86.38
68257;DHT22;55069;51.568;4.656;2023-12-22T02:21:29;8.35;86.59
68257;DHT22;55069;51.568;4.656;2023-12-22T02:23:54;8.46;85.41
68257;DHT22;55069;51.568;4.656;2023-12-22T02:26:29;8.48;84.45
68257;DHT22;55069;51.568;4.656;2023-12-22T02:28:59;8.43;84.41
68257;DHT22;55069;51.568;4.656;2023-12-22T02:31:40;8.48;83.55
68257;DHT22;55069;51.568;4.656;2023-12-22T02:34:14;8.59;82.21
68257;DHT22;55069;51.568;4.656;2023-12-22T02:36:43;8.59;81.68
68257;DHT22;55069;51.568;4.656;2023-12-22T02:39:10;8.64;81.87
68257;DHT22;55069;51.568;4.656;2023-12-22T02:41:36;8.70;80.89
68257;DHT22;55069;51.568;4.656;2023-12-22T02:44:01;8.67;81.46
68257;DHT22;55069;51.568;4.656;2023-12-22T02:46:27;8.76;81.49
68257;DHT22;55069;51.568;4.656;2023-12-22T02:48:52;8.79;81.69
68257;DHT22;55069;51.568;4.656;2023-12-22T02:51:18;8.83;82.08
68257;DHT22;55069;51.568;4.656;2023-12-22T02:53:43;8.83;81.96
68257;DHT22;55069;51.568;4.656;2023-12-22T02:56:09;8.87;81.87
68257;DHT22;55069;51.568;4.656;2023-12-22T02:58:34;8.85;82.08
68257;DHT22;55069;51.568;4.656;2023-12-22T03:01:00;8.81;82.79
68257;DHT22;55069;51.568;4.656;2023-12-22T03:03:25;8.97;81.88
68257;DHT22;55069;51.568;4.656;2023-12-22T03:05:51;9.00;81.62
68257;DHT22;55069;51.568;4.656;2023-12-22T03:08:16;8.90;82.17
68257;DHT22;55069;51.568;4.656;2023-12-22T03:10:42;9.14;80.52
68257;DHT22;55069;51.568;4.656;2023-12-22T03:13:07;9.12;81.21
68257;DHT22;55069;51.568;4.656;2023-12-22T03:15:32;9.08;81.59
68257;DHT22;55069;51.568;4.656;2023-12-22T03:17:58;8.98;82.36
68257;DHT22;55069;51.568;4.656;2023-12-22T03:20:23;9.00;82.56
68257;DHT22;55069;51.568;4.656;2023-12-22T03:22:49;9.04;83.03
68257;DHT22;55069;51.568;4.656;2023-12-22T03:25:15;9.04;83.39
68257;DHT22;55069;51.568;4.656;2023-12-22T03:27:40;9.03;83.59
68257;DHT22;55069;51.568;4.656;2023-12-22T03:30:06;8.98;84.05
68257;DHT22;55069;51.568;4.656;2023-12-22T03:32:32;8.92;84.67
68257;DHT22;55069;51.568;4.656;2023-12-22T03:34:57;8.94;84.46
68257;DHT22;55069;51.568;4.656;2023-12-22T03:37:23;8.91;84.54
68257;DHT22;55069;51.568;4.656;2023-12-22T03:39:48;8.91;84.40
68257;DHT22;55069;51.568;4.656;2023-12-22T03:42:13;9.01;83.78
68257;DHT22;55069;51.568;4.656;2023-12-22T03:44:39;8.98;83.59
68257;DHT22;55069;51.568;4.656;2023-12-22T03:47:04;8.98;83.20
68257;DHT22;55069;51.568;4.656;2023-12-22T03:49:30;8.94;83.27
68257;DHT22;55069;51.568;4.656;2023-12-22T03:51:55;9.03;82.62
68257;DHT22;55069;51.568;4.656;2023-12-22T03:54:21;9.04;82.90
68257;DHT22;55069;51.568;4.656;2023-12-22T03:56:46;9.05;82.86
68257;DHT22;55069;51.568;4.656;2023-12-22T03:59:12;9.11;82.81
68257;DHT22;55069;51.568;4.656;2023-12-22T04:01:38;9.10;82.94
68257;DHT22;55069;51.568;4.656;2023-12-22T04:04:04;9.04;83.52
68257;DHT22;55069;51.568;4.656;2023-12-22T04:06:29;9.10;83.40
68257;DHT22;55069;51.568;4.656;2023-12-22T04:08:55;9.08;83.73
68257;DHT22;55069;51.568;4.656;2023-12-22T04:11:20;9.14;83.54
68257;DHT22;55069;51.568;4.656;2023-12-22T04:13:46;9.15;83.90
68257;DHT22;55069;51.568;4.656;2023-12-22T04:16:11;9.14;84.33
68257;DHT22;55069;51.568;4.656;2023-12-22T04:18:37;8.98;86.34
68257;DHT22;55069;51.568;4.656;2023-12-22T04:21:02;8.81;88.32
68257;DHT22;55069;51.568;4.656;2023-12-22T04:23:28;8.73;89.08
68257;DHT22;55069;51.568;4.656;2023-12-22T04:25:53;8.64;89.60
68257;DHT22;55069;51.568;4.656;2023-12-22T04:28:19;8.69;89.32
68257;DHT22;55069;51.568;4.656;2023-12-22T04:30:45;8.76;88.93
68257;DHT22;55069;51.568;4.656;2023-12-22T04:33:10;8.74;89.17
68257;DHT22;55069;51.568;4.656;2023-12-22T04:35:36;8.80;89.16
68257;DHT22;55069;51.568;4.656;2023-12-22T04:38:02;8.71;89.93
68257;DHT22;55069;51.568;4.656;2023-12-22T04:40:27;8.67;90.08
68257;DHT22;55069;51.568;4.656;2023-12-22T04:42:53;8.66;90.37
68257;DHT22;55069;51.568;4.656;2023-12-22T04:45:19;8.70;89.18
68257;DHT22;55069;51.568;4.656;2023-12-22T04:47:44;8.84;88.35
68257;DHT22;55069;51.568;4.656;2023-12-22T04:50:10;8.87;87.35
68257;DHT22;55069;51.568;4.656;2023-12-22T04:52:35;8.88;86.86
68257;DHT22;55069;51.568;4.656;2023-12-22T04:55:00;8.88;86.17
68257;DHT22;55069;51.568;4.656;2023-12-22T04:57:26;8.87;86.58
68257;DHT22;55069;51.568;4.656;2023-12-22T04:59:51;8.98;85.56
68257;DHT22;55069;51.568;4.656;2023-12-22T05:02:17;8.94;85.62
68257;DHT22;55069;51.568;4.656;2023-12-22T05:04:43;8.98;85.49
68257;DHT22;55069;51.568;4.656;2023-12-22T05:07:08;9.00;85.17
68257;DHT22;55069;51.568;4.656;2023-12-22T05:09:36;9.12;84.34
68257;DHT22;55069;51.568;4.656;2023-12-22T05:12:02;9.07;84.63
68257;DHT22;55069;51.568;4.656;2023-12-22T05:14:27;9.12;84.35
68257;DHT22;55069;51.568;4.656;2023-12-22T05:16:53;9.04;84.75
68257;DHT22;55069;51.568;4.656;2023-12-22T05:19:21;9.11;84.26
68257;DHT22;55069;51.568;4.656;2023-12-22T05:21:46;9.14;83.84
68257;DHT22;55069;51.568;4.656;2023-12-22T05:24:12;9.19;83.74
68257;DHT22;55069;51.568;4.656;2023-12-22T05:26:37;9.18;83.70
68257;DHT22;55069;51.568;4.656;2023-12-22T05:29:03;9.18;83.53
68257;DHT22;55069;51.568;4.656;2023-12-22T05:31:28;9.22;83.57
68257;DHT22;55069;51.568;4.656;2023-12-22T05:33:56;9.28;83.34
68257;DHT22;55069;51.568;4.656;2023-12-22T05:36:21;9.24;83.49
68257;DHT22;55069;51.568;4.656;2023-12-22T05:38:47;9.36;82.69
68257;DHT22;55069;51.568;4.656;2023-12-22T05:41:13;9.31;83.22
68257;DHT22;55069;51.568;4.656;2023-12-22T05:43:38;9.24;83.75
68257;DHT22;55069;51.568;4.656;2023-12-22T05:46:04;9.19;83.81
68257;DHT22;55069;51.568;4.656;2023-12-22T05:48:29;9.27;83.09
68257;DHT22;55069;51.568;4.656;2023-12-22T05:50:58;9.31;83.10
68257;DHT22;55069;51.568;4.656;2023-12-22T05:53:23;9.32;83.32
68257;DHT22;55069;51.568;4.656;2023-12-22T05:55:49;9.34;83.28
68257;DHT22;55069;51.568;4.656;2023-12-22T05:58:14;9.27;83.88
68257;DHT22;55069;51.568;4.656;2023-12-22T06:00:40;9.34;83.72
68257;DHT22;55069;51.568;4.656;2023-12-22T06:03:05;9.29;84.17
68257;DHT22;55069;51.568;4.656;2023-12-22T06:05:31;9.36;84.27
68257;DHT22;55069;51.568;4.656;2023-12-22T06:07:56;9.38;84.40
68257;DHT22;55069;51.568;4.656;2023-12-22T06:10:22;9.31;84.61
68257;DHT22;55069;51.568;4.656;2023-12-22T06:12:47;9.38;84.21
68257;DHT22;55069;51.568;4.656;2023-12-22T06:15:13;9.35;84.66
68257;DHT22;55069;51.568;4.656;2023-12-22T06:17:38;9.36;84.34
68257;DHT22;55069;51.568;4.656;2023-12-22T06:20:04;9.32;84.49
68257;DHT22;55069;51.568;4.656;2023-12-22T06:22:29;9.43;83.95
68257;DHT22;55069;51.568;4.656;2023-12-22T06:24:55;9.42;84.18
68257;DHT22;55069;51.568;4.656;2023-12-22T06:27:20;9.36;84.55
68257;DHT22;55069;51.568;4.656;2023-12-22T06:29:46;9.40;84.48
68257;DHT22;55069;51.568;4.656;2023-12-22T06:32:11;9.42;84.30
68257;DHT22;55069;51.568;4.656;2023-12-22T06:34:37;9.36;84.41
68257;DHT22;55069;51.568;4.656;2023-12-22T06:37:03;9.49;84.01
68257;DHT22;55069;51.568;4.656;2023-12-22T06:39:28;9.49;84.01
68257;DHT22;55069;51.568;4.656;2023-12-22T06:41:54;9.48;83.94
68257;DHT22;55069;51.568;4.656;2023-12-22T06:44:19;9.55;83.58
68257;DHT22;55069;51.568;4.656;2023-12-22T06:46:45;9.53;83.80
68257;DHT22;55069;51.568;4.656;2023-12-22T06:49:10;9.45;84.04
68257;DHT22;55069;51.568;4.656;2023-12-22T06:51:36;9.45;84.26
68257;DHT22;55069;51.568;4.656;2023-12-22T06:54:02;9.46;84.22
68257;DHT22;55069;51.568;4.656;2023-12-22T06:56:33;9.52;84.13
68257;DHT22;55069;51.568;4.656;2023-12-22T06:58:59;9.56;83.99
68257;DHT22;55069;51.568;4.656;2023-12-22T07:03:51;9.57;84.78
68257;DHT22;55069;51.568;4.656;2023-12-22T07:06:21;9.50;85.32
68257;DHT22;55069;51.568;4.656;2023-12-22T07:11:51;9.39;86.28
68257;DHT22;55069;51.568;4.656;2023-12-22T07:14:18;9.45;86.18
68257;DHT22;55069;51.568;4.656;2023-12-22T07:16:44;9.39;86.54
68257;DHT22;55069;51.568;4.656;2023-12-22T07:19:09;9.36;86.68
68257;DHT22;55069;51.568;4.656;2023-12-22T07:21:38;9.34;86.96
68257;DHT22;55069;51.568;4.656;2023-12-22T07:24:04;9.36;87.03
68257;DHT22;55069;51.568;4.656;2023-12-22T07:26:30;9.34;87.23
68257;DHT22;55069;51.568;4.656;2023-12-22T07:28:56;9.35;87.07
68257;DHT22;55069;51.568;4.656;2023-12-22T07:31:22;9.35;87.25
68257;DHT22;55069;51.568;4.656;2023-12-22T07:33:47;9.39;87.16
68257;DHT22;55069;51.568;4.656;2023-12-22T07:36:13;9.39;87.30
68257;DHT22;55069;51.568;4.656;2023-12-22T07:38:39;9.38;87.32
68257;DHT22;55069;51.568;4.656;2023-12-22T07:41:05;9.43;87.39
68257;DHT22;55069;51.568;4.656;2023-12-22T07:43:31;9.36;87.77
68257;DHT22;55069;51.568;4.656;2023-12-22T07:45:56;9.34;88.15
68257;DHT22;55069;51.568;4.656;2023-12-22T07:48:21;9.32;88.66
68257;DHT22;55069;51.568;4.656;2023-12-22T07:50:47;9.27;89.18
68257;DHT22;55069;51.568;4.656;2023-12-22T07:53:12;9.15;89.84
68257;DHT22;55069;51.568;4.656;2023-12-22T07:55:38;9.11;90.54
68257;DHT22;55069;51.568;4.656;2023-12-22T07:58:07;9.10;90.69
68257;DHT22;55069;51.568;4.656;2023-12-22T08:00:33;9.07;91.07
68257;DHT22;55069;51.568;4.656;2023-12-22T08:02:58;9.04;91.52
68257;DHT22;55069;51.568;4.656;2023-12-22T08:05:24;9.04;91.85
68257;DHT22;55069;51.568;4.656;2023-12-22T08:07:50;9.00;92.48
68257;DHT22;55069;51.568;4.656;2023-12-22T08:10:15;8.97;93.14
68257;DHT22;55069;51.568;4.656;2023-12-22T08:12:41;8.92;93.99
68257;DHT22;55069;51.568;4.656;2023-12-22T08:15:07;8.83;95.10
68257;DHT22;55069;51.568;4.656;2023-12-22T08:17:35;8.77;95.84
68257;DHT22;55069;51.568;4.656;2023-12-22T08:20:02;8.73;96.08
68257;DHT22;55069;51.568;4.656;2023-12-22T08:22:27;8.76;96.20
68257;DHT22;55069;51.568;4.656;2023-12-22T08:24:53;8.88;95.50
68257;DHT22;55069;51.568;4.656;2023-12-22T08:27:18;8.88;95.94
68257;DHT22;55069;51.568;4.656;2023-12-22T08:29:44;8.91;95.89
68257;DHT22;55069;51.568;4.656;2023-12-22T08:32:09;8.97;96.01
68257;DHT22;55069;51.568;4.656;2023-12-22T08:34:35;8.98;96.15
68257;DHT22;55069;51.568;4.656;2023-12-22T08:37:00;9.00;96.47
68257;DHT22;55069;51.568;4.656;2023-12-22T08:39:26;9.01;96.55
68257;DHT22;55069;51.568;4.656;2023-12-22T08:41:51;9.04;96.44
68257;DHT22;55069;51.568;4.656;2023-12-22T08:44:17;9.07;96.55
68257;DHT22;55069;51.568;4.656;2023-12-22T08:46:43;9.11;96.43
68257;DHT22;55069;51.568;4.656;2023-12-22T08:49:08;9.17;96.19
68257;DHT22;55069;51.568;4.656;2023-12-22T08:51:34;9.22;96.15
68257;DHT22;55069;51.568;4.656;2023-12-22T08:53:59;9.25;96.11
68257;DHT22;55069;51.568;4.656;2023-12-22T08:56:25;9.32;95.72
68257;DHT22;55069;51.568;4.656;2023-12-22T08:58:52;9.39;95.34
68257;DHT22;55069;51.568;4.656;2023-12-22T09:01:20;9.43;95.08
68257;DHT22;55069;51.568;4.656;2023-12-22T09:03:46;9.52;94.59
68257;DHT22;55069;51.568;4.656;2023-12-22T09:06:15;9.53;94.46
68257;DHT22;55069;51.568;4.656;2023-12-22T09:08:42;9.60;94.32
68257;DHT22;55069;51.568;4.656;2023-12-22T09:11:08;9.69;93.81
68257;DHT22;55069;51.568;4.656;2023-12-22T09:13:33;9.69;94.10
68257;DHT22;55069;51.568;4.656;2023-12-22T09:16:01;9.69;94.53
68257;DHT22;55069;51.568;4.656;2023-12-22T09:18:28;9.75;94.08
68257;DHT22;55069;51.568;4.656;2023-12-22T09:20:53;9.82;93.91
68257;DHT22;55069;51.568;4.656;2023-12-22T09:23:19;9.84;93.76
68257;DHT22;55069;51.568;4.656;2023-12-22T09:25:45;9.93;93.38
68257;DHT22;55069;51.568;4.656;2023-12-22T09:28:10;10.01;92.64
68257;DHT22;55069;51.568;4.656;2023-12-22T09:30:36;10.05;92.88
68257;DHT22;55069;51.568;4.656;2023-12-22T09:33:01;10.07;92.78
68257;DHT22;55069;51.568;4.656;2023-12-22T09:35:27;10.08;92.86
68257;DHT22;55069;51.568;4.656;2023-12-22T09:37:53;10.08;92.86
68257;DHT22;55069;51.568;4.656;2023-12-22T09:40:19;10.04;92.80
68257;DHT22;55069;51.568;4.656;2023-12-22T09:42:47;10.08;92.91
68257;DHT22;55069;51.568;4.656;2023-12-22T09:45:16;10.13;92.21
68257;DHT22;55069;51.568;4.656;2023-12-22T09:47:44;10.17;91.90
68257;DHT22;55069;51.568;4.656;2023-12-22T09:50:10;10.17;92.09
68257;DHT22;55069;51.568;4.656;2023-12-22T09:52:38;10.22;92.42
68257;DHT22;55069;51.568;4.656;2023-12-22T09:55:07;10.20;92.23
68257;DHT22;55069;51.568;4.656;2023-12-22T09:57:33;10.20;92.18
68257;DHT22;55069;51.568;4.656;2023-12-22T10:00:00;10.21;92.07
68257;DHT22;55069;51.568;4.656;2023-12-22T10:02:27;10.22;91.85
68257;DHT22;55069;51.568;4.656;2023-12-22T10:04:54;10.24;91.77
68257;DHT22;55069;51.568;4.656;2023-12-22T10:07:20;10.24;91.85
68257;DHT22;55069;51.568;4.656;2023-12-22T10:09:47;10.28;91.04
68257;DHT22;55069;51.568;4.656;2023-12-22T10:12:14;10.34;90.80
68257;DHT22;55069;51.568;4.656;2023-12-22T10:14:41;10.41;90.63
68257;DHT22;55069;51.568;4.656;2023-12-22T10:17:07;10.48;90.08
68257;DHT22;55069;51.568;4.656;2023-12-22T10:19:32;10.48;90.03
68257;DHT22;55069;51.568;4.656;2023-12-22T10:21:57;10.48;90.44
68257;DHT22;55069;51.568;4.656;2023-12-22T10:24:42;10.56;89.71
68257;DHT22;55069;51.568;4.656;2023-12-22T10:27:12;10.56;89.76
68257;DHT22;55069;51.568;4.656;2023-12-22T10:29:38;10.58;89.63
68257;DHT22;55069;51.568;4.656;2023-12-22T10:32:04;10.58;89.23
68257;DHT22;55069;51.568;4.656;2023-12-22T10:34:30;10.61;89.34
68257;DHT22;55069;51.568;4.656;2023-12-22T10:36:57;10.62;89.17
68257;DHT22;55069;51.568;4.656;2023-12-22T10:39:22;10.65;89.09
68257;DHT22;55069;51.568;4.656;2023-12-22T10:41:48;10.69;89.01
68257;DHT22;55069;51.568;4.656;2023-12-22T10:44:16;10.69;88.98
68257;DHT22;55069;51.568;4.656;2023-12-22T10:46:46;10.68;88.86
68257;DHT22;55069;51.568;4.656;2023-12-22T10:49:12;10.69;88.91
68257;DHT22;55069;51.568;4.656;2023-12-22T10:51:38;10.68;88.78
68257;DHT22;55069;51.568;4.656;2023-12-22T10:54:04;10.63;89.15
68257;DHT22;55069;51.568;4.656;2023-12-22T10:56:31;10.68;88.74
68257;DHT22;55069;51.568;4.656;2023-12-22T10:58:56;10.72;88.50
68257;DHT22;55069;51.568;4.656;2023-12-22T11:01:29;10.75;88.35
68257;DHT22;55069;51.568;4.656;2023-12-22T11:03:57;10.68;88.68
68257;DHT22;55069;51.568;4.656;2023-12-22T11:06:24;10.68;89.07
68257;DHT22;55069;51.568;4.656;2023-12-22T11:08:52;10.66;89.34
68257;DHT22;55069;51.568;4.656;2023-12-22T11:11:27;10.66;89.25
68257;DHT22;55069;51.568;4.656;2023-12-22T11:13:56;10.72;89.11
68257;DHT22;55069;51.568;4.656;2023-12-22T11:16:24;10.73;88.84
68257;DHT22;55069;51.568;4.656;2023-12-22T11:18:49;10.72;88.92
68257;DHT22;55069;51.568;4.656;2023-12-22T11:21:18;10.71;89.07
68257;DHT22;55069;51.568;4.656;2023-12-22T11:23:44;10.69;89.06
68257;DHT22;55069;51.568;4.656;2023-12-22T11:26:11;10.69;88.81
68257;DHT22;55069;51.568;4.656;2023-12-22T11:28:38;10.75;88.81
68257;DHT22;55069;51.568;4.656;2023-12-22T11:31:07;10.79;88.81
68257;DHT22;55069;51.568;4.656;2023-12-22T11:33:36;10.83;88.57
68257;DHT22;55069;51.568;4.656;2023-12-22T11:36:03;10.84;88.24
68257;DHT22;55069;51.568;4.656;2023-12-22T11:38:30;10.86;87.95
68257;DHT22;55069;51.568;4.656;2023-12-22T11:40:57;10.86;87.89
68257;DHT22;55069;51.568;4.656;2023-12-22T11:43:23;10.88;87.86
68257;DHT22;55069;51.568;4.656;2023-12-22T11:45:50;10.88;87.87
68257;DHT22;55069;51.568;4.656;2023-12-22T11:48:15;10.84;87.68
68257;DHT22;55069;51.568;4.656;2023-12-22T11:50:41;10.88;87.75
68257;DHT22;55069;51.568;4.656;2023-12-22T11:53:21;10.86;87.87
68257;DHT22;55069;51.568;4.656;2023-12-22T11:55:57;10.86;87.85
68257;DHT22;55069;51.568;4.656;2023-12-22T11:58:47;10.88;87.65
68257;DHT22;55069;51.568;4.656;2023-12-22T12:01:22;10.84;88.12
68257;DHT22;55069;51.568;4.656;2023-12-22T12:04:02;10.88;87.47
68257;DHT22;55069;51.568;4.656;2023-12-22T12:09:00;10.88;87.27
68257;DHT22;55069;51.568;4.656;2023-12-22T12:12:08;10.90;87.53
68257;DHT22;55069;51.568;4.656;2023-12-22T12:14:37;10.86;87.06
68257;DHT22;55069;51.568;4.656;2023-12-22T12:17:07;10.82;87.77
68257;DHT22;55069;51.568;4.656;2023-12-22T12:19:39;10.77;87.64
68257;DHT22;55069;51.568;4.656;2023-12-22T12:22:07;10.76;88.06
68257;DHT22;55069;51.568;4.656;2023-12-22T12:24:33;10.77;87.77
68257;DHT22;55069;51.568;4.656;2023-12-22T12:26:58;10.77;87.71
68257;DHT22;55069;51.568;4.656;2023-12-22T12:29:24;10.79;87.73
68257;DHT22;55069;51.568;4.656;2023-12-22T12:31:50;10.77;87.76
68257;DHT22;55069;51.568;4.656;2023-12-22T12:34:16;10.77;87.81
68257;DHT22;55069;51.568;4.656;2023-12-22T12:36:46;10.82;88.17
68257;DHT22;55069;51.568;4.656;2023-12-22T12:39:15;10.79;87.75
68257;DHT22;55069;51.568;4.656;2023-12-22T12:41:41;10.83;87.80
68257;DHT22;55069;51.568;4.656;2023-12-22T12:44:08;10.84;87.65
68257;DHT22;55069;51.568;4.656;2023-12-22T12:46:37;10.84;87.76
68257;DHT22;55069;51.568;4.656;2023-12-22T12:49:09;10.88;87.98
68257;DHT22;55069;51.568;4.656;2023-12-22T12:54:03;10.93;87.00
68257;DHT22;55069;51.568;4.656;2023-12-22T12:56:29;10.92;86.99
68257;DHT22;55069;51.568;4.656;2023-12-22T12:58:54;10.93;87.02
68257;DHT22;55069;51.568;4.656;2023-12-22T13:01:20;10.93;87.10
68257;DHT22;55069;51.568;4.656;2023-12-22T13:03:55;10.88;87.24
68257;DHT22;55069;51.568;4.656;2023-12-22T13:06:21;10.83;87.75
68257;DHT22;55069;51.568;4.656;2023-12-22T13:08:53;10.79;87.58
68257;DHT22;55069;51.568;4.656;2023-12-22T13:11:23;10.77;87.54
68257;DHT22;55069;51.568;4.656;2023-12-22T13:13:50;10.80;87.43
68257;DHT22;55069;51.568;4.656;2023-12-22T13:16:23;10.77;87.30
68257;DHT22;55069;51.568;4.656;2023-12-22T13:18:52;10.83;87.33
68257;DHT22;55069;51.568;4.656;2023-12-22T13:21:17;10.80;87.55
68257;DHT22;55069;51.568;4.656;2023-12-22T13:23:43;10.80;87.45
68257;DHT22;55069;51.568;4.656;2023-12-22T13:26:21;10.80;87.54
68257;DHT22;55069;51.568;4.656;2023-12-22T13:28:46;10.82;87.24
68257;DHT22;55069;51.568;4.656;2023-12-22T13:31:13;10.79;87.44
68257;DHT22;55069;51.568;4.656;2023-12-22T13:33:42;10.76;87.40
68257;DHT22;55069;51.568;4.656;2023-12-22T13:36:08;10.77;87.15
68257;DHT22;55069;51.568;4.656;2023-12-22T13:38:33;10.79;87.11
68257;DHT22;55069;51.568;4.656;2023-12-22T13:41:02;10.79;87.20
68257;DHT22;55069;51.568;4.656;2023-12-22T13:43:31;10.80;87.50
68257;DHT22;55069;51.568;4.656;2023-12-22T13:45:56;10.77;87.25
68257;DHT22;55069;51.568;4.656;2023-12-22T13:48:23;10.80;87.39
68257;DHT22;55069;51.568;4.656;2023-12-22T13:50:59;10.77;87.31
68257;DHT22;55069;51.568;4.656;2023-12-22T13:53:25;10.80;87.15
68257;DHT22;55069;51.568;4.656;2023-12-22T13:56:03;10.82;87.07
68257;DHT22;55069;51.568;4.656;2023-12-22T13:58:29;10.77;87.03
68257;DHT22;55069;51.568;4.656;2023-12-22T14:00:54;10.80;86.83
68257;DHT22;55069;51.568;4.656;2023-12-22T14:03:20;10.79;87.23
68257;DHT22;55069;51.568;4.656;2023-12-22T14:05:48;10.76;87.30
68257;DHT22;55069;51.568;4.656;2023-12-22T14:08:17;10.76;86.86
68257;DHT22;55069;51.568;4.656;2023-12-22T14:10:47;10.76;87.14
68257;DHT22;55069;51.568;4.656;2023-12-22T14:13:13;10.76;87.13
68257;DHT22;55069;51.568;4.656;2023-12-22T14:15:39;10.77;86.97
68257;DHT22;55069;51.568;4.656;2023-12-22T14:18:04;10.76;86.65
68257;DHT22;55069;51.568;4.656;2023-12-22T14:20:30;10.80;86.72
68257;DHT22;55069;51.568;4.656;2023-12-22T14:22:55;10.80;86.84
68257;DHT22;55069;51.568;4.656;2023-12-22T14:25:21;10.79;86.94
68257;DHT22;55069;51.568;4.656;2023-12-22T14:27:46;10.79;86.83
68257;DHT22;55069;51.568;4.656;2023-12-22T14:30:12;10.80;86.91
68257;DHT22;55069;51.568;4.656;2023-12-22T14:32:38;10.83;86.79
68257;DHT22;55069;51.568;4.656;2023-12-22T14:35:04;10.89;86.16
68257;DHT22;55069;51.568;4.656;2023-12-22T14:37:30;10.95;85.75
68257;DHT22;55069;51.568;4.656;2023-12-22T14:39:55;10.93;86.04
68257;DHT22;55069;51.568;4.656;2023-12-22T14:42:21;10.90;85.85
68257;DHT22;55069;51.568;4.656;2023-12-22T14:44:47;10.92;85.78
68257;DHT22;55069;51.568;4.656;2023-12-22T14:47:12;10.92;85.61
68257;DHT22;55069;51.568;4.656;2023-12-22T14:49:38;10.92;85.58
68257;DHT22;55069;51.568;4.656;2023-12-22T14:52:03;10.89;85.82
68257;DHT22;55069;51.568;4.656;2023-12-22T14:54:29;10.88;85.91
68257;DHT22;55069;51.568;4.656;2023-12-22T14:56:54;10.89;85.79
68257;DHT22;55069;51.568;4.656;2023-12-22T14:59:20;10.89;85.55
68257;DHT22;55069;51.568;4.656;2023-12-22T15:01:45;10.86;85.71
68257;DHT22;55069;51.568;4.656;2023-12-22T15:04:11;10.88;85.53
68257;DHT22;55069;51.568;4.656;2023-12-22T15:06:40;10.88;85.48
68257;DHT22;55069;51.568;4.656;2023-12-22T15:09:06;10.88;85.63
68257;DHT22;55069;51.568;4.656;2023-12-22T15:11:31;10.88;85.48
68257;DHT22;55069;51.568;4.656;2023-12-22T15:13:57;10.90;85.17
68257;DHT22;55069;51.568;4.656;2023-12-22T15:16:22;10.89;85.42
68257;DHT22;55069;51.568;4.656;2023-12-22T15:18:48;10.86;85.40
68257;DHT22;55069;51.568;4.656;2023-12-22T15:21:20;10.84;85.49
68257;DHT22;55069;51.568;4.656;2023-12-22T15:23:46;10.80;85.61
68257;DHT22;55069;51.568;4.656;2023-12-22T15:26:22;10.86;85.22
68257;DHT22;55069;51.568;4.656;2023-12-22T15:28:48;10.80;85.54
68257;DHT22;55069;51.568;4.656;2023-12-22T15:31:14;10.89;85.19
68257;DHT22;55069;51.568;4.656;2023-12-22T15:33:39;10.84;85.46
68257;DHT22;55069;51.568;4.656;2023-12-22T15:36:05;10.89;85.35
68257;DHT22;55069;51.568;4.656;2023-12-22T15:38:30;10.68;87.57
68257;DHT22;55069;51.568;4.656;2023-12-22T15:40:59;10.45;89.29
68257;DHT22;55069;51.568;4.656;2023-12-22T15:43:25;10.35;90.68
68257;DHT22;55069;51.568;4.656;2023-12-22T15:45:50;10.25;90.57